Time;durP1;ratioP1;P1;durP2;ratioP2;P2;SDS_P1;SDS_P2;PMS_P1;PMS_P2;Temp;Humidity;BMP_temperature;BMP_pressure;BME280_temperature;BME280_humidity;BME280_pressure;Samples;Min_cycle;Max_cycle;Signal;HPM_P1;HPM_P2
2022/05/10 00:00:56;;;;;;;3.10;2.42;;;13.90;99.90;;;;;;4997202;28;20053;-90
2022/05/10 00:03:36;;;;;;;5.03;3.30;;;13.80;99.90;;;;;;4999412;28;20046;-91
2022/05/10 00:06:09;;;;;;;4.15;2.30;;;13.80;99.90;;;;;;4999380;28;20119;-91
2022/05/10 00:08:42;;;;;;;6.72;2.47;;;13.80;99.90;;;;;;4999667;28;20055;-91
2022/05/10 00:11:13;;;;;;;5.35;3.13;;;13.70;99.90;;;;;;4982613;28;20041;-91
2022/05/10 00:13:44;;;;;;;3.40;2.92;;;13.80;99.90;;;;;;5005570;28;20033;-90
2022/05/10 00:16:18;;;;;;;5.18;2.88;;;13.80;99.90;;;;;;4981847;28;20049;-91
2022/05/10 00:18:47;;;;;;;6.97;2.90;;;13.80;99.90;;;;;;4999812;28;20049;-91
2022/05/10 00:21:20;;;;;;;4.95;2.75;;;13.80;99.90;;;;;;4998679;28;20075;-90
2022/05/10 00:23:46;;;;;;;5.82;2.65;;;13.70;99.90;;;;;;5015537;28;20053;-91
2022/05/10 00:26:12;;;;;;;3.87;2.97;;;13.80;99.90;;;;;;4982565;28;20479;-91
2022/05/10 00:28:38;;;;;;;6.63;2.90;;;13.70;99.90;;;;;;5017718;28;20041;-91
2022/05/10 00:31:05;;;;;;;5.87;3.20;;;14.20;99.90;;;;;;4998099;28;20052;-91
2022/05/10 00:33:32;;;;;;;6.13;2.40;;;13.70;99.90;;;;;;4998940;28;20041;-91
2022/05/10 00:36:00;;;;;;;8.25;2.53;;;13.80;99.90;;;;;;4996812;28;20049;-92
2022/05/10 00:38:35;;;;;;;4.03;3.33;;;13.80;99.90;;;;;;4998824;28;20085;-91
2022/05/10 00:41:48;;;;;;;2.50;2.30;;;13.70;99.90;;;;;;4998316;28;20088;-90
2022/05/10 00:44:25;;;;;;;5.15;2.65;;;13.70;99.90;;;;;;4998611;28;20052;-92
2022/05/10 00:47:15;;;;;;;6.10;2.15;;;13.70;99.90;;;;;;5003432;28;20048;-91
2022/05/10 00:49:57;;;;;;;6.75;2.60;;;13.60;99.90;;;;;;5015561;28;20124;-91
2022/05/10 00:52:41;;;;;;;7.82;2.67;;;13.60;99.90;;;;;;5000280;28;20049;-91
2022/05/10 00:55:13;;;;;;;8.77;2.97;;;13.60;99.90;;;;;;5014717;28;20045;-91
2022/05/10 00:57:55;;;;;;;4.30;2.50;;;13.50;99.90;;;;;;4998979;28;20115;-91
2022/05/10 01:00:28;;;;;;;8.20;2.85;;;12.50;99.90;;;;;;4988281;28;20480;-91
2022/05/10 01:03:24;;;;;;;4.22;2.95;;;13.60;99.90;;;;;;4999122;28;20042;-91
2022/05/10 01:06:09;;;;;;;5.65;3.15;;;13.60;99.90;;;;;;4999116;28;20049;-91
2022/05/10 01:08:59;;;;;;;8.40;2.80;;;13.50;99.90;;;;;;4995499;28;20082;-91
2022/05/10 01:11:32;;;;;;;6.53;2.45;;;13.20;99.90;;;;;;4992872;28;20563;-91
2022/05/10 01:14:12;;;;;;;4.45;2.55;;;13.30;99.90;;;;;;4988465;28;20042;-94
2022/05/10 01:16:40;;;;;;;5.20;3.00;;;13.30;99.90;;;;;;4998109;28;20072;-91
2022/05/10 01:19:14;;;;;;;3.42;2.20;;;13.30;99.90;;;;;;4998175;28;20560;-91
2022/05/10 01:22:05;;;;;;;4.18;2.25;;;13.30;99.90;;;;;;4998690;28;20057;-90
2022/05/10 01:25:05;;;;;;;5.40;2.55;;;13.20;99.90;;;;;;5002109;28;20570;-90
2022/05/10 01:28:10;;;;;;;4.70;2.47;;;13.10;99.90;;;;;;5012374;28;20132;-91
2022/05/10 01:30:37;;;;;;;2.45;2.05;;;13.10;99.90;;;;;;5002906;28;20070;-91
2022/05/10 01:36:11;;;;;;;2.75;2.53;;;13.00;99.90;;;;;;5018713;28;20350;-91
2022/05/10 01:39:07;;;;;;;4.00;2.42;;;13.00;99.90;;;;;;4982776;28;20093;-91
2022/05/10 01:41:52;;;;;;;3.05;2.50;;;12.90;99.90;;;;;;5001840;28;20064;-91
2022/05/10 01:44:28;;;;;;;3.72;2.42;;;12.90;99.90;;;;;;4999427;28;20055;-91
2022/05/10 01:47:18;;;;;;;4.85;2.95;;;11.80;99.90;;;;;;4995207;28;20037;-90
2022/05/10 01:49:57;;;;;;;4.20;2.80;;;12.90;99.90;;;;;;5017119;28;20037;-90
2022/05/10 01:52:41;;;;;;;4.72;2.35;;;12.90;99.90;;;;;;5017525;28;20041;-90
2022/05/10 01:55:16;;;;;;;5.10;2.50;;;12.90;99.90;;;;;;5017923;28;20049;-90
2022/05/10 01:57:44;;;;;;;2.92;2.38;;;13.00;99.90;;;;;;4995817;28;20045;-90
2022/05/10 02:00:32;;;;;;;3.83;2.40;;;12.80;99.90;;;;;;5001041;28;20462;-90
2022/05/10 02:03:03;;;;;;;3.95;2.85;;;11.70;99.90;;;;;;5001229;28;20128;-90
2022/05/10 02:05:39;;;;;;;2.50;2.30;;;12.90;99.90;;;;;;5001308;28;20052;-90
2022/05/10 02:08:38;;;;;;;4.28;3.40;;;12.80;99.90;;;;;;5000230;28;20049;-93
2022/05/10 02:11:17;;;;;;;6.88;2.85;;;13.00;99.90;;;;;;5001213;28;20052;-90
2022/05/10 02:13:59;;;;;;;4.88;3.47;;;13.00;99.90;;;;;;5001830;28;20041;-91
2022/05/10 02:16:51;;;;;;;3.78;2.67;;;12.30;99.90;;;;;;5001819;28;20046;-91
2022/05/10 02:19:39;;;;;;;3.50;2.88;;;12.00;99.90;;;;;;5013404;28;20053;-90
2022/05/10 02:22:13;;;;;;;7.32;2.92;;;13.00;99.90;;;;;;5001234;28;20136;-90
2022/05/10 02:24:48;;;;;;;4.47;3.20;;;13.00;99.90;;;;;;5001695;28;20045;-91
2022/05/10 02:27:35;;;;;;;4.50;2.92;;;13.10;99.90;;;;;;4995020;28;20050;-90
2022/05/10 02:30:19;;;;;;;4.50;3.22;;;13.10;99.90;;;;;;4982409;28;20054;-91
2022/05/10 02:33:11;;;;;;;4.35;2.95;;;13.10;99.90;;;;;;5000947;28;20060;-91
2022/05/10 02:35:58;;;;;;;5.15;3.80;;;13.70;99.90;;;;;;5000208;28;20056;-90
2022/05/10 02:38:36;;;;;;;4.85;3.72;;;13.10;99.90;;;;;;5010262;28;20097;-90
2022/05/10 02:41:07;;;;;;;5.32;3.65;;;13.10;99.90;;;;;;4981643;28;20054;-91
2022/05/10 02:43:41;;;;;;;4.47;3.00;;;13.10;99.90;;;;;;4981045;28;20404;-90
2022/05/10 02:46:07;;;;;;;6.97;3.63;;;13.20;99.90;;;;;;4962414;28;20050;-90
2022/05/10 02:48:37;;;;;;;8.03;5.47;;;13.30;99.90;;;;;;4978123;28;20054;-90
2022/05/10 02:51:04;;;;;;;8.43;4.28;;;13.10;99.90;;;;;;4981874;28;20052;-90
2022/05/10 02:53:31;;;;;;;8.73;5.03;;;13.20;99.90;;;;;;4980713;28;20483;-90
2022/05/10 02:56:06;;;;;;;7.70;4.00;;;13.20;99.90;;;;;;4981212;28;20495;-90
2022/05/10 02:58:58;;;;;;;5.32;3.97;;;13.30;99.90;;;;;;4980909;28;20046;-90
2022/05/10 03:01:48;;;;;;;4.95;4.13;;;13.20;99.90;;;;;;4980892;28;20116;-90
2022/05/10 03:04:16;;;;;;;6.53;4.18;;;13.30;99.90;;;;;;4980284;28;20129;-93
2022/05/10 03:06:46;;;;;;;7.88;3.70;;;13.20;99.90;;;;;;4980863;28;20050;-91
2022/05/10 03:09:16;;;;;;;7.03;3.80;;;13.20;99.90;;;;;;4980789;28;20050;-93
2022/05/10 03:11:47;;;;;;;5.55;3.85;;;13.20;99.90;;;;;;4981271;28;20108;-91
2022/05/10 03:14:13;;;;;;;12.50;5.47;;;13.20;99.90;;;;;;4964867;28;20077;-91
2022/05/10 03:16:39;;;;;;;10.20;4.83;;;13.30;99.90;;;;;;4965107;28;20085;-91
2022/05/10 03:19:10;;;;;;;10.75;4.28;;;13.30;99.90;;;;;;4980694;28;20292;-91
2022/05/10 03:21:37;;;;;;;4.90;4.07;;;13.40;99.90;;;;;;4996951;28;20113;-91
2022/05/10 03:24:09;;;;;;;8.27;5.15;;;13.40;99.90;;;;;;4980288;28;20490;-90
2022/05/10 03:26:39;;;;;;;10.95;5.18;;;13.40;99.90;;;;;;4980467;28;20534;-90
2022/05/10 03:29:06;;;;;;;8.75;4.93;;;13.20;99.90;;;;;;4964678;28;20038;-90
2022/05/10 03:31:42;;;;;;;8.10;4.93;;;13.30;99.90;;;;;;4980364;28;20495;-91
2022/05/10 03:36:58;;;;;;;10.30;4.13;;;13.30;99.90;;;;;;4997354;28;20085;-90
2022/05/10 03:39:35;;;;;;;9.60;4.55;;;13.30;99.90;;;;;;4979693;28;20057;-90
2022/05/10 03:42:03;;;;;;;7.05;3.75;;;13.40;99.90;;;;;;4965723;28;20049;-90
2022/05/10 03:44:40;;;;;;;7.80;3.97;;;13.40;99.90;;;;;;4995216;28;20049;-90
2022/05/10 03:47:10;;;;;;;7.10;4.68;;;13.30;99.90;;;;;;4978053;28;20046;-90
2022/05/10 03:49:39;;;;;;;9.45;4.63;;;13.30;99.90;;;;;;4975814;28;20047;-91
2022/05/10 03:52:13;;;;;;;6.88;4.60;;;13.60;99.90;;;;;;4947612;28;20092;-91
2022/05/10 03:54:41;;;;;;;7.72;4.30;;;13.30;99.90;;;;;;4995084;28;20515;-90
2022/05/10 03:57:07;;;;;;;6.07;4.60;;;13.30;99.90;;;;;;4996406;28;20046;-90
2022/05/10 03:59:41;;;;;;;8.50;5.20;;;13.30;99.90;;;;;;4995468;28;20045;-91
2022/05/10 04:02:18;;;;;;;8.05;5.03;;;13.20;99.90;;;;;;4979765;28;20054;-90
2022/05/10 04:04:59;;;;;;;7.75;4.57;;;13.30;99.90;;;;;;4978886;28;20053;-91
2022/05/10 04:07:27;;;;;;;6.55;4.43;;;13.30;99.90;;;;;;4965801;28;20068;-91
2022/05/10 04:09:56;;;;;;;8.40;4.43;;;13.20;99.90;;;;;;4996347;28;20406;-91
2022/05/10 04:12:21;;;;;;;8.50;4.70;;;12.80;99.90;;;;;;4964299;28;20045;-94
2022/05/10 04:14:47;;;;;;;9.00;4.73;;;13.20;99.90;;;;;;4975931;28;20045;-90
2022/05/10 04:17:30;;;;;;;9.07;4.72;;;13.30;99.90;;;;;;5184924;27;20438;-92
2022/05/10 04:20:06;;;;;;;8.47;3.93;;;13.20;99.90;;;;;;5114670;28;20043;-91
2022/05/10 04:22:33;;;;;;;8.52;5.13;;;13.20;99.90;;;;;;5113293;28;20040;-90
2022/05/10 04:25:11;;;;;;;;;;;;;;;;;;;;;
2022/05/10 04:27:43;;;;;;;10.00;5.18;;;13.20;99.90;;;;;;5133886;27;20076;-90
2022/05/10 04:30:11;;;;;;;5.70;4.32;;;13.20;99.90;;;;;;5112713;28;20047;-90
2022/05/10 04:32:42;;;;;;;7.18;4.80;;;13.30;99.90;;;;;;5114532;27;20031;-90
2022/05/10 04:35:08;;;;;;;7.82;4.57;;;13.20;99.90;;;;;;5096211;28;20048;-90
2022/05/10 04:37:37;;;;;;;;;;;13.30;99.90;;;;;;5145392;27;20123;-90
2022/05/10 04:42:52;;;;;;;8.23;4.72;;;13.20;99.90;;;;;;5136507;27;20039;-90
2022/05/10 04:45:28;;;;;;;6.55;5.22;;;13.30;99.90;;;;;;5120776;27;20045;-91
2022/05/10 04:48:05;;;;;;;8.60;6.10;;;13.30;99.90;;;;;;5133774;27;20035;-91
2022/05/10 04:50:31;;;;;;;7.63;4.87;;;13.30;99.90;;;;;;5131165;27;20051;-92
2022/05/10 04:52:59;;;;;;;5.47;4.57;;;13.30;99.90;;;;;;5133287;27;20281;-91
2022/05/10 04:55:28;;;;;;;9.48;5.65;;;13.40;99.90;;;;;;5146504;27;20039;-91
2022/05/10 04:57:56;;;;;;;6.85;5.55;;;13.30;99.90;;;;;;5117405;28;20092;-91
2022/05/10 05:00:26;;;;;;;8.90;6.03;;;13.40;99.90;;;;;;5111584;28;20130;-91
2022/05/10 05:02:55;;;;;;;6.70;4.85;;;13.40;99.90;;;;;;5120233;27;20078;-91
2022/05/10 05:05:20;;;;;;;10.48;5.50;;;13.40;99.90;;;;;;5133266;27;20137;-91
2022/05/10 05:07:46;;;;;;;14.00;6.17;;;13.40;99.90;;;;;;5114339;28;20146;-91
2022/05/10 05:10:15;;;;;;;6.55;4.53;;;13.40;99.90;;;;;;5111881;28;20047;-90
2022/05/10 05:12:46;;;;;;;11.43;5.05;;;13.50;99.90;;;;;;5095919;28;20092;-91
2022/05/10 05:15:12;;;;;;;11.38;5.75;;;13.50;99.90;;;;;;5113846;28;20039;-91
2022/05/10 05:17:43;;;;;;;7.72;6.32;;;12.40;99.90;;;;;;5128416;28;20062;-91
2022/05/10 05:20:16;;;;;;;8.35;6.20;;;13.60;99.90;;;;;;5095691;28;20039;-91
2022/05/10 05:22:49;;;;;;;8.68;5.30;;;13.60;99.90;;;;;;5111848;28;20104;-91
2022/05/10 05:25:16;;;;;;;8.18;5.53;;;13.70;99.90;;;;;;5112347;28;20047;-91
2022/05/10 05:27:52;;;;;;;6.03;4.88;;;13.70;99.90;;;;;;5122719;27;20062;-92
2022/05/10 05:30:30;;;;;;;;;;;;;;;;;;;;;
2022/05/10 05:33:01;;;;;;;11.43;5.53;;;13.80;99.90;;;;;;5117817;27;20048;-91
2022/05/10 05:35:29;;;;;;;13.23;6.35;;;13.80;99.90;;;;;;5078210;28;20036;-91
2022/05/10 05:38:08;;;;;;;;;;;;;;;;;;;;;
2022/05/10 05:40:40;;;;;;;7.78;5.10;;;14.00;99.90;;;;;;5109470;28;20052;-92
2022/05/10 05:43:15;;;;;;;8.95;4.68;;;14.00;99.90;;;;;;5112456;27;20040;-92
2022/05/10 05:45:43;;;;;;;11.73;5.43;;;14.20;99.90;;;;;;5107706;28;20051;-91
2022/05/10 05:48:12;;;;;;;10.38;5.35;;;14.20;99.90;;;;;;5082257;28;20121;-91
2022/05/10 05:50:40;;;;;;;8.40;5.32;;;14.30;99.90;;;;;;5097550;28;20189;-93
2022/05/10 05:53:08;;;;;;;10.35;5.95;;;13.50;99.90;;;;;;5081703;28;20054;-91
2022/05/10 05:55:34;;;;;;;9.48;5.07;;;14.40;99.90;;;;;;5094281;28;20075;-91
2022/05/10 05:58:05;;;;;;;7.40;4.70;;;14.60;99.90;;;;;;5107913;28;20082;-91
2022/05/10 06:00:31;;;;;;;7.13;5.85;;;14.60;99.90;;;;;;5097254;28;20035;-91
2022/05/10 06:02:59;;;;;;;7.70;5.17;;;14.70;99.90;;;;;;5097255;28;20045;-91
2022/05/10 06:05:28;;;;;;;9.48;4.97;;;14.70;99.90;;;;;;5097530;28;20305;-91
2022/05/10 06:07:58;;;;;;;5.65;4.78;;;14.80;99.90;;;;;;5097843;28;20427;-91
2022/05/10 06:10:25;;;;;;;12.18;6.18;;;14.90;99.90;;;;;;5097214;28;20126;-91
2022/05/10 06:13:01;;;;;;;6.90;4.97;;;15.00;99.90;;;;;;5097404;28;20489;-92
2022/05/10 06:15:27;;;;;;;8.48;5.47;;;15.20;99.90;;;;;;5096969;27;20136;-88
2022/05/10 06:17:53;;;;;;;7.05;4.63;;;15.30;99.90;;;;;;5114665;27;20052;-86
2022/05/10 06:20:22;;;;;;;4.93;4.07;;;15.40;99.90;;;;;;5112320;28;20055;-86
2022/05/10 06:22:48;;;;;;;7.03;4.85;;;15.50;99.90;;;;;;5113208;27;20878;-85
2022/05/10 06:25:17;;;;;;;8.52;4.90;;;15.70;99.90;;;;;;5096514;27;20070;-86
2022/05/10 06:27:47;;;;;;;8.75;4.35;;;15.90;99.90;;;;;;5113171;28;20043;-90
2022/05/10 06:30:13;;;;;;;8.18;4.88;;;16.00;99.90;;;;;;5098442;27;20050;-88
2022/05/10 06:32:40;;;;;;;4.47;3.85;;;16.00;99.90;;;;;;5115168;27;20047;-87
2022/05/10 06:35:08;;;;;;;7.75;4.40;;;16.30;99.90;;;;;;5094413;28;20370;-90
2022/05/10 06:40:25;;;;;;;6.28;4.32;;;16.90;99.90;;;;;;5127892;27;20481;-90
2022/05/10 06:43:03;;;;;;;7.70;4.20;;;17.30;99.90;;;;;;5065007;28;20405;-90
2022/05/10 06:45:32;;;;;;;5.35;3.95;;;17.50;99.90;;;;;;5081841;28;20126;-90
2022/05/10 06:47:59;;;;;;;6.60;3.78;;;17.70;99.90;;;;;;5104857;28;20051;-88
2022/05/10 06:50:26;;;;;;;7.00;4.65;;;18.00;99.90;;;;;;5102373;28;20562;-88
2022/05/10 06:52:54;;;;;;;6.03;3.50;;;18.00;99.90;;;;;;5114228;27;20078;-85
2022/05/10 06:55:23;;;;;;;5.70;3.40;;;18.10;99.90;;;;;;5124903;27;20048;-86
2022/05/10 06:57:51;;;;;;;6.78;4.00;;;17.40;99.90;;;;;;5090968;28;20050;-89
2022/05/10 07:00:25;;;;;;;6.35;4.65;;;18.20;99.90;;;;;;5111746;27;20044;-91
2022/05/10 07:02:50;;;;;;;4.05;3.13;;;17.90;99.90;;;;;;5069723;28;20055;-96
2022/05/10 07:05:39;;;;;;;4.50;2.53;;;18.30;99.90;;;;;;5113374;27;20060;-92
2022/05/10 07:08:13;;;;;;;6.82;3.75;;;18.40;99.90;;;;;;5098903;27;20062;-91
2022/05/10 07:10:47;;;;;;;6.20;3.40;;;18.70;99.90;;;;;;5104815;28;20071;-94
2022/05/10 07:13:49;;;;;;;;;;;;;;;;;;;;;
2022/05/10 07:16:16;;;;;;;4.88;2.55;;;19.50;99.90;;;;;;5099216;28;20095;-91
2022/05/10 07:18:55;;;;;;;10.05;2.75;;;19.80;99.90;;;;;;5108003;27;20081;-94
2022/05/10 07:24:41;;;;;;;6.32;3.25;;;20.50;99.90;;;;;;5114012;27;20046;-92
2022/05/10 07:27:22;;;;;;;9.27;3.30;;;21.00;99.90;;;;;;5097235;27;20069;-90
2022/05/10 07:29:57;;;;;;;8.45;3.88;;;21.20;99.90;;;;;;5108417;27;20052;-90
2022/05/10 07:32:29;;;;;;;4.53;2.92;;;20.60;97.90;;;;;;5097048;28;20040;-91
2022/05/10 07:35:04;;;;;;;6.10;3.20;;;20.60;97.20;;;;;;5103443;27;20039;-91
2022/05/10 07:37:33;;;;;;;7.20;3.05;;;21.50;97.10;;;;;;5088214;28;20044;-92
2022/05/10 07:40:03;;;;;;;5.53;3.33;;;21.60;96.20;;;;;;5105836;28;20054;-93
2022/05/10 07:42:33;;;;;;;5.72;3.00;;;21.70;95.70;;;;;;5126240;27;20045;-91
2022/05/10 07:45:06;;;;;;;4.97;3.05;;;21.70;95.20;;;;;;5095081;28;20044;-90
2022/05/10 07:47:35;;;;;;;4.55;3.30;;;21.70;94.90;;;;;;5076970;27;20035;-92
2022/05/10 07:50:00;;;;;;;4.72;3.72;;;21.80;94.20;;;;;;5103087;28;20574;-89
2022/05/10 07:52:31;;;;;;;4.55;2.85;;;21.90;94.00;;;;;;5103862;27;20043;-90
2022/05/10 07:54:56;;;;;;;6.65;3.28;;;22.00;93.60;;;;;;5115445;27;20067;-91
2022/05/10 07:57:25;;;;;;;4.15;3.28;;;22.20;93.40;;;;;;5086230;27;20075;-87
2022/05/10 07:59:50;;;;;;;5.22;3.08;;;22.30;92.70;;;;;;5121664;27;20488;-94
2022/05/10 08:02:19;;;;;;;6.30;2.72;;;22.50;92.20;;;;;;5121530;27;20047;-93
2022/05/10 08:04:45;;;;;;;8.40;3.33;;;22.70;91.90;;;;;;5126434;27;20061;-96
2022/05/10 08:07:10;;;;;;;5.72;2.78;;;22.80;91.20;;;;;;5064028;28;20043;-94
2022/05/10 08:09:36;;;;;;;4.95;2.75;;;22.70;90.80;;;;;;5127582;27;20054;-95
2022/05/10 08:12:02;;;;;;;5.25;3.05;;;22.80;90.70;;;;;;5095849;28;20042;-95
2022/05/10 08:14:28;;;;;;;4.72;2.63;;;22.70;90.50;;;;;;5114593;28;20123;-94
2022/05/10 08:16:53;;;;;;;5.85;2.65;;;22.80;90.30;;;;;;5115189;28;20052;-92
2022/05/10 08:19:19;;;;;;;4.50;3.10;;;22.90;90.30;;;;;;5099131;28;20800;-93
2022/05/10 08:21:45;;;;;;;5.65;3.15;;;22.90;89.60;;;;;;5128204;27;20045;-92
2022/05/10 08:24:11;;;;;;;3.03;2.72;;;22.90;88.80;;;;;;5090277;28;20112;-93
2022/05/10 08:26:39;;;;;;;5.60;2.97;;;22.80;88.20;;;;;;5116623;28;20067;-93
2022/05/10 08:29:04;;;;;;;5.45;2.67;;;22.80;87.20;;;;;;5094618;28;20094;-90
2022/05/10 08:31:30;;;;;;;3.20;2.60;;;22.90;87.60;;;;;;5122633;28;20047;-95
2022/05/10 08:33:56;;;;;;;3.53;2.67;;;22.90;87.20;;;;;;5104275;28;20097;-94
2022/05/10 08:36:33;;;;;;;5.68;3.33;;;22.80;86.60;;;;;;5098370;28;20911;-94
2022/05/10 08:39:04;;;;;;;4.55;3.45;;;22.70;85.30;;;;;;5116780;28;20118;-92
2022/05/10 08:41:48;;;;;;;4.22;2.72;;;22.50;86.40;;;;;;5106465;28;20420;-95
2022/05/10 08:44:17;;;;;;;7.10;3.75;;;22.10;85.50;;;;;;5118211;28;20058;-87
2022/05/10 08:46:46;;;;;;;5.50;3.55;;;22.10;86.60;;;;;;5100877;28;20055;-88
2022/05/10 08:49:22;;;;;;;6.40;2.90;;;22.20;87.20;;;;;;5124721;27;20039;-91
2022/05/10 08:51:52;;;;;;;4.82;3.22;;;22.20;86.80;;;;;;5117718;28;20074;-94
2022/05/10 08:54:18;;;;;;;4.47;2.72;;;22.20;87.00;;;;;;5101150;28;20051;-93
2022/05/10 08:57:06;;;;;;;3.17;2.72;;;22.20;87.20;;;;;;5085160;28;20035;-93
2022/05/10 09:00:00;;;;;;;3.65;3.35;;;22.20;87.00;;;;;;5105720;28;20044;-92
2022/05/10 09:03:09;;;;;;;5.03;3.40;;;22.10;86.40;;;;;;5111489;27;20183;-93
2022/05/10 09:05:43;;;;;;;4.60;2.58;;;22.20;86.30;;;;;;5141384;27;20087;-96
2022/05/10 09:08:38;;;;;;;7.30;3.30;;;21.00;86.20;;;;;;5134867;27;20095;-96
2022/05/10 09:11:10;;;;;;;6.78;3.75;;;21.10;86.10;;;;;;5114701;28;20039;-96
2022/05/10 09:13:40;;;;;;;5.57;3.20;;;21.30;86.70;;;;;;5121274;27;20043;-92
2022/05/10 09:16:15;;;;;;;4.10;3.33;;;21.80;87.40;;;;;;5106173;27;20050;-92
2022/05/10 09:18:53;;;;;;;8.02;4.10;;;21.90;87.30;;;;;;5100489;27;20126;-92
2022/05/10 09:21:22;;;;;;;6.35;3.55;;;21.90;87.90;;;;;;5119932;27;20048;-93
2022/05/10 09:24:16;;;;;;;4.30;3.13;;;21.90;87.90;;;;;;5114256;27;20035;-87
2022/05/10 09:26:48;;;;;;;8.45;4.10;;;21.80;87.90;;;;;;5110352;27;20123;-88
2022/05/10 09:29:52;;;;;;;4.90;3.50;;;21.80;88.50;;;;;;5131940;27;20031;-90
2022/05/10 09:35:17;;;;;;;6.72;3.50;;;21.80;88.40;;;;;;5086848;28;20048;-90
2022/05/10 09:38:03;;;;;;;5.72;3.13;;;21.70;88.80;;;;;;5093768;27;20055;-90
2022/05/10 09:40:58;;;;;;;5.97;3.53;;;21.80;88.90;;;;;;5131026;27;20043;-89
2022/05/10 09:43:35;;;;;;;4.88;3.47;;;21.70;88.80;;;;;;5117645;27;20051;-92
2022/05/10 09:46:23;;;;;;;4.60;3.55;;;21.80;89.10;;;;;;5120246;27;20051;-90
2022/05/10 09:48:48;;;;;;;5.07;3.60;;;21.90;89.70;;;;;;5102424;27;20066;-90
2022/05/10 09:51:39;;;;;;;5.22;3.78;;;22.00;89.30;;;;;;5127094;27;20062;-89
2022/05/10 09:54:23;;;;;;;8.00;4.07;;;22.10;89.10;;;;;;5101851;28;20433;-89
2022/05/10 09:56:51;;;;;;;10.32;4.18;;;22.20;89.00;;;;;;5113251;27;20073;-90
2022/05/10 09:59:43;;;;;;;6.57;4.13;;;22.30;88.90;;;;;;5103907;27;20122;-93
2022/05/10 10:02:09;;;;;;;9.05;4.35;;;22.40;88.50;;;;;;5106690;27;20051;-90
2022/05/10 10:04:37;;;;;;;7.65;3.97;;;22.40;88.40;;;;;;5090727;27;20127;-91
2022/05/10 10:07:13;;;;;;;5.00;3.38;;;22.40;87.90;;;;;;5136646;27;20482;-91
2022/05/10 10:09:43;;;;;;;5.23;3.73;;;22.50;88.10;;;;;;5119032;27;20046;-92
2022/05/10 10:12:33;;;;;;;4.13;3.40;;;21.70;87.30;;;;;;5105731;28;20051;-93
2022/05/10 10:15:02;;;;;;;6.07;3.78;;;22.60;87.60;;;;;;5122632;27;20047;-91
2022/05/10 10:17:37;;;;;;;5.80;3.75;;;22.90;87.60;;;;;;5103312;27;20062;-91
2022/05/10 10:20:30;;;;;;;3.97;2.92;;;23.00;87.60;;;;;;5119766;27;20079;-90
2022/05/10 10:22:59;;;;;;;5.68;3.45;;;23.10;88.00;;;;;;5105052;27;20043;-92
2022/05/10 10:25:32;;;;;;;4.80;3.13;;;23.20;87.30;;;;;;5118973;27;20051;-87
2022/05/10 10:28:16;;;;;;;14.60;3.42;;;23.20;86.30;;;;;;5116106;27;20401;-91
2022/05/10 10:31:06;;;;;;;6.95;2.85;;;23.10;85.40;;;;;;5112569;27;20047;-90
2022/05/10 10:33:37;;;;;;;4.75;3.20;;;23.20;85.20;;;;;;5095450;27;20047;-91
2022/05/10 10:36:14;;;;;;;5.90;3.22;;;23.20;86.00;;;;;;5107651;27;20041;-91
2022/05/10 10:39:06;;;;;;;11.88;4.07;;;23.30;85.80;;;;;;5116156;27;20038;-92
2022/05/10 10:41:57;;;;;;;7.85;3.70;;;23.50;84.40;;;;;;5126462;27;20051;-90
2022/05/10 10:44:26;;;;;;;6.30;3.53;;;23.70;84.80;;;;;;5126346;27;20051;-91
2022/05/10 10:47:18;;;;;;;7.70;4.60;;;23.90;83.90;;;;;;5121828;27;20050;-89
2022/05/10 10:50:15;;;;;;;4.97;3.45;;;23.90;82.90;;;;;;5108553;27;20055;-87
2022/05/10 10:52:41;;;;;;;4.85;3.00;;;23.90;82.70;;;;;;5128687;27;20078;-85
2022/05/10 10:55:08;;;;;;;4.22;3.47;;;23.90;83.50;;;;;;5124508;27;20063;-85
2022/05/10 10:57:53;;;;;;;4.75;3.08;;;23.90;83.60;;;;;;5104097;27;20035;-86
2022/05/10 11:00:20;;;;;;;5.72;3.40;;;24.00;83.50;;;;;;5095740;27;20054;-86
2022/05/10 11:03:06;;;;;;;7.65;3.25;;;24.10;83.50;;;;;;5121437;27;20040;-84
2022/05/10 11:05:58;;;;;;;5.47;3.33;;;24.20;82.50;;;;;;5128848;27;20054;-86
2022/05/10 11:08:48;;;;;;;8.27;3.80;;;24.40;81.70;;;;;;5094551;27;20493;-89
2022/05/10 11:11:39;;;;;;;4.70;3.85;;;24.30;81.30;;;;;;5098041;27;20079;-85
2022/05/10 11:14:23;;;;;;;5.82;3.38;;;24.20;81.80;;;;;;5114954;27;20039;-85
2022/05/10 11:17:14;;;;;;;5.57;3.38;;;24.00;82.30;;;;;;5099840;27;20155;-85
2022/05/10 11:19:59;;;;;;;7.68;3.25;;;23.90;82.60;;;;;;5119004;27;20087;-86
2022/05/10 11:22:31;;;;;;;4.30;2.92;;;23.70;83.70;;;;;;5091328;27;20192;-92
2022/05/10 11:25:21;;;;;;;4.95;4.03;;;23.50;84.20;;;;;;5118141;27;20512;-89
2022/05/10 11:28:11;;;;;;;6.05;3.80;;;23.30;84.80;;;;;;5090219;27;20587;-84
2022/05/10 11:30:49;;;;;;;6.40;4.28;;;23.20;85.00;;;;;;5114157;27;20389;-89
2022/05/10 11:33:29;;;;;;;6.53;4.30;;;23.20;84.40;;;;;;5105406;28;20055;-89
2022/05/10 11:36:05;;;;;;;5.53;3.15;;;23.10;84.50;;;;;;5109889;27;20119;-89
2022/05/10 11:39:04;;;;;;;5.35;3.80;;;23.20;85.20;;;;;;5114625;28;20061;-92
2022/05/10 11:41:48;;;;;;;7.82;3.83;;;23.20;85.30;;;;;;5106127;28;20044;-90
2022/05/10 11:44:39;;;;;;;6.68;3.45;;;23.20;84.50;;;;;;5107290;28;20455;-88
2022/05/10 11:47:24;;;;;;;5.70;3.00;;;23.30;84.90;;;;;;5107879;28;20046;-91
2022/05/10 11:50:17;;;;;;;5.07;3.67;;;23.60;84.10;;;;;;5108547;28;20051;-90
2022/05/10 11:53:41;;;;;;;6.65;3.80;;;23.80;82.80;;;;;;5108186;28;20097;-88
2022/05/10 11:56:08;;;;;;;5.70;4.00;;;24.10;83.80;;;;;;5044543;28;20517;-90
2022/05/10 11:58:36;;;;;;;6.68;3.03;;;24.20;82.40;;;;;;5088107;28;20101;-89
2022/05/10 12:01:11;;;;;;;4.85;3.55;;;24.40;82.20;;;;;;5102730;28;20047;-90
2022/05/10 12:03:36;;;;;;;4.88;3.13;;;24.50;80.50;;;;;;5113368;28;20066;-89
2022/05/10 12:06:24;;;;;;;8.73;3.35;;;24.60;81.60;;;;;;5109250;28;20082;-89
2022/05/10 12:08:52;;;;;;;11.60;3.88;;;24.70;79.80;;;;;;5092749;28;20047;-87
2022/05/10 12:11:33;;;;;;;4.80;3.40;;;24.90;80.40;;;;;;5108800;28;20099;-88
2022/05/10 12:22:49;;;;;;;2.55;2.08;;;25.40;77.00;;;;;;5108337;28;20051;-87
2022/05/10 12:25:44;;;;;;;5.35;3.67;;;25.30;77.60;;;;;;5111548;28;20082;-91
2022/05/10 12:28:30;;;;;;;4.93;2.80;;;25.10;76.60;;;;;;5108077;28;20051;-92
2022/05/10 12:30:57;;;;;;;6.55;3.03;;;24.90;77.90;;;;;;5108065;28;20369;-94
2022/05/10 12:33:35;;;;;;;10.57;3.55;;;24.70;77.80;;;;;;5093434;28;20385;-95
2022/05/10 12:36:07;;;;;;;7.18;3.00;;;24.60;76.90;;;;;;5109387;28;20056;-90
2022/05/10 12:38:50;;;;;;;7.47;2.60;;;24.40;77.60;;;;;;5094759;28;20040;-93
2022/05/10 12:41:40;;;;;;;4.97;3.67;;;24.30;77.90;;;;;;5115030;28;20122;-93
2022/05/10 12:44:33;;;;;;;4.95;2.38;;;24.30;78.20;;;;;;5097038;28;20152;-94
2022/05/10 12:47:33;;;;;;;8.57;3.38;;;24.50;78.10;;;;;;5109414;27;20046;-92
2022/05/10 12:50:21;;;;;;;8.18;2.92;;;24.60;77.20;;;;;;5111944;28;20108;-94
2022/05/10 12:52:50;;;;;;;8.82;2.33;;;24.70;76.90;;;;;;5096311;28;20073;-92
2022/05/10 12:55:26;;;;;;;7.55;2.65;;;24.80;77.30;;;;;;5095383;28;20043;-93
2022/05/10 12:58:21;;;;;;;11.57;3.65;;;24.80;76.50;;;;;;5095500;28;20114;-93
2022/05/10 13:00:54;;;;;;;9.57;4.25;;;24.70;75.90;;;;;;5111310;27;20043;-94
2022/05/10 13:03:45;;;;;;;8.68;2.47;;;24.50;76.60;;;;;;5116722;27;20226;-95
2022/05/10 13:06:21;;;;;;;7.40;3.08;;;24.30;76.20;;;;;;5098791;28;20044;-96
2022/05/10 13:09:05;;;;;;;6.45;3.05;;;24.10;77.10;;;;;;5114333;27;20044;-93
2022/05/10 13:11:50;;;;;;;5.22;2.33;;;24.00;77.70;;;;;;5113765;27;20052;-96
2022/05/10 13:14:17;;;;;;;4.97;2.83;;;23.80;77.50;;;;;;5098451;28;20048;-95
2022/05/10 13:16:49;;;;;;;5.45;2.35;;;23.60;77.90;;;;;;5114046;28;20056;-90
2022/05/10 13:19:20;;;;;;;5.88;2.72;;;23.50;77.90;;;;;;5096104;28;20047;-92
2022/05/10 13:21:46;;;;;;;6.85;2.60;;;23.40;78.40;;;;;;5095354;28;20120;-91
2022/05/10 13:24:14;;;;;;;;;;;23.50;78.50;;;;;;5114286;28;20500;-91
2022/05/10 13:26:58;;;;;;;;;;;23.40;78.50;;;;;;5113815;27;19927;-87
2022/05/10 13:29:48;;;;;;;4.90;2.42;;;23.40;78.60;;;;;;5112703;28;19920;-89
2022/05/10 13:32:33;;;;;;;5.60;2.47;;;23.30;77.60;;;;;;5086450;27;20127;-87
2022/05/10 13:35:11;;;;;;;5.00;2.20;;;23.30;78.10;;;;;;5108909;28;20109;-89
2022/05/10 13:38:05;;;;;;;6.13;2.47;;;23.30;78.20;;;;;;5113224;28;20131;-88
2022/05/10 13:40:47;;;;;;;4.47;2.85;;;23.30;78.70;;;;;;5103813;28;20082;-90
2022/05/10 13:43:16;;;;;;;7.15;2.55;;;23.30;79.10;;;;;;5092921;27;20074;-90
2022/05/10 13:45:47;;;;;;;3.20;2.03;;;23.30;79.20;;;;;;5148275;27;20059;-90
2022/05/10 13:48:14;;;;;;;6.80;2.03;;;23.30;79.10;;;;;;5113113;27;20048;-87
2022/05/10 13:50:41;;;;;;;5.35;2.00;;;23.30;78.50;;;;;;5117275;27;20054;-89
2022/05/10 13:53:12;;;;;;;5.45;2.20;;;23.30;77.80;;;;;;5111876;28;20066;-88
2022/05/10 13:55:41;;;;;;;4.88;1.80;;;23.30;77.50;;;;;;5111543;27;20043;-88
2022/05/10 13:58:08;;;;;;;3.42;2.00;;;23.30;76.90;;;;;;5096215;28;20035;-88
2022/05/10 14:00:40;;;;;;;4.97;2.58;;;23.30;76.70;;;;;;5094469;28;20556;-90